In Rescue
 
Open Full Screen Window  High Contrast Mode
Wind Gusting 00 knots
03
June 20, 2021 11:57 AM EDT
Weather Information
Wind Direction
  310 °
Wind Speed
  03 kt (3 mph)
Wind Gust
  00 kt (0 mph)
Altimeter
29.74 in
Visibility
10 SM
Temperature
26° C
79° F
Dewpoint
21° C
70° F
Humidity
74%
1hr Rain Fall
00.00 in.
24hr Rain Fall
00.00 in.
Sky Condition
Scattered @ 2,100 ft
VFR

METAR KONZ 201557Z AUTO 31003KT 10SM SCT021 26/21 A2974 RMK AO2 T02600209

FAA Disclaimer: The data displayed is for advisory purposes only and is not to be used for flight planning or operations.